createdAt,value
2023-03-29T00:00:21.788Z,14.88
2023-03-29T00:03:25.531Z,17.70
2023-03-29T00:06:31.947Z,14.07
2023-03-29T00:09:35.194Z,11.23
2023-03-29T00:12:40.700Z,10.07
2023-03-29T00:15:44.021Z,20.38
2023-03-29T00:18:47.362Z,21.48
2023-03-29T00:21:50.926Z,20.75
2023-03-29T00:25:04.831Z,25.52
2023-03-29T00:28:08.292Z,17.55
2023-03-29T00:31:15.202Z,22.08
2023-03-29T00:34:18.922Z,21.13
2023-03-29T00:37:22.238Z,5.25
2023-03-29T00:40:25.610Z,17.23
2023-03-29T00:43:29.407Z,23.25
2023-03-29T00:46:35.512Z,25.25
2023-03-29T00:50:05.650Z,13.13
2023-03-29T00:53:13.175Z,25.00
2023-03-29T00:56:40.563Z,20.08
2023-03-29T00:59:46.025Z,9.30
2023-03-29T01:02:55.001Z,20.08
2023-03-29T01:06:03.838Z,9.90
2023-03-29T01:09:10.060Z,9.75
2023-03-29T01:12:17.956Z,11.60
2023-03-29T01:15:27.261Z,16.55
2023-03-29T01:18:32.164Z,11.88
2023-03-29T01:21:54.965Z,14.93
2023-03-29T01:25:26.909Z,30.42
2023-03-29T01:28:40.063Z,20.30
2023-03-29T01:31:52.462Z,21.08
2023-03-29T01:35:04.887Z,7.53
2023-03-29T01:38:14.629Z,18.63
2023-03-29T01:41:18.115Z,17.35
2023-03-29T01:45:16.940Z,6.18
2023-03-29T01:48:32.136Z,8.35
2023-03-29T01:51:46.377Z,9.95
2023-03-29T01:54:57.739Z,16.80
2023-03-29T01:58:03.958Z,25.55
2023-03-29T02:01:15.316Z,22.50
2023-03-29T02:04:28.546Z,15.07
2023-03-29T02:07:32.982Z,13.85
2023-03-29T02:10:37.708Z,8.38
2023-03-29T02:13:41.711Z,13.15
2023-03-29T02:16:46.926Z,11.07
2023-03-29T02:20:05.362Z,10.35
2023-03-29T02:23:36.946Z,7.32
2023-03-29T02:26:41.505Z,6.93
2023-03-29T02:29:47.592Z,11.77
2023-03-29T02:33:24.618Z,3.13
2023-03-29T02:36:39.006Z,7.85
2023-03-29T02:39:42.826Z,5.10
2023-03-29T02:42:47.579Z,13.05
2023-03-29T02:45:53.386Z,6.75
2023-03-29T02:48:59.546Z,5.47
2023-03-29T02:52:12.400Z,9.38
2023-03-29T02:55:19.631Z,2.45
2023-03-29T02:58:27.208Z,2.35
2023-03-29T03:01:30.911Z,4.95
2023-03-29T03:04:36.216Z,6.32
2023-03-29T03:07:42.520Z,7.15
2023-03-29T03:10:47.442Z,6.82
2023-03-29T03:13:50.983Z,4.40
2023-03-29T03:16:54.373Z,11.52
2023-03-29T03:19:57.877Z,12.55
2023-03-29T03:23:08.557Z,10.73
2023-03-29T03:26:18.655Z,9.38
2023-03-29T03:29:25.384Z,5.57
2023-03-29T03:32:35.717Z,10.32
2023-03-29T03:36:06.996Z,14.68
2023-03-29T03:42:24.986Z,10.65
2023-03-29T03:45:29.720Z,2.85
2023-03-29T03:48:52.798Z,2.78
2023-03-29T03:52:01.181Z,6.80
2023-03-29T03:55:06.218Z,6.60
2023-03-29T03:58:34.938Z,10.00
2023-03-29T04:08:14.622Z,8.18
2023-03-29T04:11:40.806Z,7.45
2023-03-29T04:14:48.520Z,7.47
2023-03-29T04:18:00.510Z,7.25
2023-03-29T04:21:13.856Z,10.52
2023-03-29T04:27:49.928Z,3.38
2023-03-29T04:31:15.935Z,4.75
2023-03-29T04:34:29.346Z,9.02
2023-03-29T04:37:34.056Z,3.85
2023-03-29T04:40:39.038Z,1.98
2023-03-29T04:43:49.168Z,8.48
2023-03-29T04:47:00.616Z,14.13
2023-03-29T04:50:14.513Z,3.40
2023-03-29T04:53:20.484Z,3.47
2023-03-29T04:56:24.570Z,1.83
2023-03-29T04:59:47.049Z,6.00
2023-03-29T05:03:15.193Z,15.43
2023-03-29T05:06:39.284Z,2.45
2023-03-29T05:09:44.411Z,5.68
2023-03-29T05:12:56.934Z,4.68
2023-03-29T05:16:01.390Z,1.98
2023-03-29T05:19:09.464Z,3.03
2023-03-29T05:22:23.429Z,10.48
2023-03-29T05:25:27.701Z,7.65
2023-03-29T05:28:31.625Z,14.43
2023-03-29T05:31:36.494Z,7.85
2023-03-29T05:34:45.341Z,6.90
2023-03-29T05:37:49.018Z,5.38
2023-03-29T05:40:53.978Z,14.55
2023-03-29T05:44:23.659Z,12.38
2023-03-29T05:47:33.312Z,11.13
2023-03-29T05:50:38.193Z,10.05
2023-03-29T05:53:42.410Z,9.18
2023-03-29T05:56:46.022Z,10.25
2023-03-29T05:59:51.481Z,6.75
2023-03-29T06:03:13.667Z,2.53
2023-03-29T06:06:27.091Z,4.53
2023-03-29T06:09:32.456Z,4.40
2023-03-29T06:12:41.589Z,9.48
2023-03-29T06:15:45.736Z,8.45
2023-03-29T06:18:49.554Z,4.88
2023-03-29T06:21:55.770Z,3.88
2023-03-29T06:25:02.511Z,18.65
2023-03-29T06:28:09.496Z,5.65
2023-03-29T06:31:13.871Z,6.38
2023-03-29T06:34:18.043Z,8.40
2023-03-29T06:37:34.804Z,6.13
2023-03-29T06:40:53.350Z,10.38
2023-03-29T06:43:59.599Z,6.68
2023-03-29T06:47:09.890Z,3.33
2023-03-29T06:50:15.275Z,7.25
2023-03-29T06:53:31.421Z,2.50
2023-03-29T07:00:02.390Z,2.80
2023-03-29T07:03:28.639Z,4.30
2023-03-29T07:06:33.229Z,5.40
2023-03-29T07:09:40.627Z,9.68
2023-03-29T07:13:02.758Z,13.45
2023-03-29T07:16:07.336Z,8.90
2023-03-29T07:19:27.945Z,8.70
2023-03-29T07:22:31.400Z,1.98
2023-03-29T07:25:40.035Z,6.63
2023-03-29T07:31:58.500Z,5.88
2023-03-29T07:35:34.606Z,10.82
2023-03-29T07:38:39.207Z,7.97
2023-03-29T07:41:48.649Z,4.57
2023-03-29T07:44:55.098Z,11.77
2023-03-29T07:48:00.347Z,5.20
2023-03-29T07:51:28.080Z,7.97
2023-03-29T07:54:39.667Z,19.30
2023-03-29T07:58:06.567Z,3.40
2023-03-29T08:01:18.774Z,3.17
2023-03-29T08:05:06.316Z,9.70
2023-03-29T08:08:25.581Z,3.58
2023-03-29T08:11:33.834Z,5.25
2023-03-29T08:14:39.992Z,6.97
2023-03-29T08:17:51.845Z,2.78
2023-03-29T08:20:55.430Z,6.40
2023-03-29T08:23:58.969Z,9.02
2023-03-29T08:27:25.310Z,5.93
2023-03-29T08:30:31.911Z,7.72
2023-03-29T08:33:37.757Z,4.20
2023-03-29T08:37:00.288Z,2.42
2023-03-29T08:40:22.243Z,8.93
2023-03-29T08:44:15.654Z,9.85
2023-03-29T08:47:39.707Z,5.30
2023-03-29T08:50:53.455Z,3.88
2023-03-29T08:54:17.465Z,2.75
2023-03-29T08:57:48.158Z,1.77
2023-03-29T09:01:06.640Z,5.03
2023-03-29T09:04:24.624Z,11.13
2023-03-29T09:07:38.699Z,7.55
2023-03-29T09:11:02.851Z,5.53
2023-03-29T09:14:40.986Z,10.68
2023-03-29T09:18:12.763Z,11.95
2023-03-29T09:21:48.872Z,9.95
2023-03-29T09:25:25.954Z,10.00
2023-03-29T09:28:49.033Z,4.43
2023-03-29T09:31:53.634Z,4.88
2023-03-29T09:35:28.603Z,7.95
2023-03-29T09:38:32.828Z,7.07
2023-03-29T09:42:04.994Z,5.30
2023-03-29T09:45:09.763Z,3.67
2023-03-29T09:48:21.631Z,12.32
2023-03-29T09:51:33.893Z,15.60
2023-03-29T09:54:37.609Z,10.13
2023-03-29T09:58:23.380Z,22.13
2023-03-29T10:01:42.225Z,12.57
2023-03-29T10:04:46.253Z,20.15
2023-03-29T10:07:54.378Z,19.38
2023-03-29T10:11:00.309Z,10.82
2023-03-29T10:14:14.826Z,15.02
2023-03-29T10:17:35.254Z,12.27
2023-03-29T10:20:41.355Z,20.80
2023-03-29T10:23:45.047Z,38.17
2023-03-29T10:26:50.165Z,19.38
2023-03-29T10:29:55.150Z,21.92
2023-03-29T10:33:02.977Z,25.40
2023-03-29T10:36:08.748Z,20.60
2023-03-29T10:39:16.918Z,27.92
2023-03-29T10:42:29.498Z,26.85
2023-03-29T10:45:36.526Z,29.02
2023-03-29T10:48:42.654Z,18.45
2023-03-29T10:55:07.640Z,23.20
2023-03-29T10:58:40.013Z,31.88
2023-03-29T11:01:53.555Z,32.05
2023-03-29T11:05:26.635Z,40.08
2023-03-29T11:08:48.859Z,22.55
2023-03-29T11:12:12.213Z,24.10
2023-03-29T11:15:31.572Z,26.50
2023-03-29T11:18:40.036Z,28.95
2023-03-29T11:22:01.436Z,18.88
2023-03-29T11:25:19.677Z,27.33
2023-03-29T11:28:36.701Z,19.15
2023-03-29T11:31:47.283Z,13.00
2023-03-29T11:35:12.968Z,20.85
2023-03-29T11:38:42.295Z,19.75
2023-03-29T11:41:54.688Z,20.17
2023-03-29T11:45:01.948Z,22.75
2023-03-29T11:48:19.945Z,15.32
2023-03-29T11:51:54.332Z,15.68
2023-03-29T11:55:06.116Z,19.38
2023-03-29T11:58:37.446Z,14.60
2023-03-29T12:01:57.243Z,14.05
2023-03-29T12:05:11.136Z,15.60
2023-03-29T12:08:19.228Z,14.63
2023-03-29T12:11:32.888Z,12.38
2023-03-29T12:14:54.891Z,12.27
2023-03-29T12:18:19.528Z,12.80
2023-03-29T12:21:25.396Z,8.43
2023-03-29T12:24:33.865Z,7.93
2023-03-29T12:28:38.344Z,7.38
2023-03-29T12:32:07.768Z,11.25
2023-03-29T12:35:22.886Z,9.88
2023-03-29T12:38:59.105Z,16.23
2023-03-29T12:43:09.248Z,19.17
2023-03-29T12:46:32.478Z,17.38
2023-03-29T12:49:39.927Z,11.00
2023-03-29T12:52:44.115Z,9.65
2023-03-29T12:55:56.741Z,10.02
2023-03-29T12:59:27.728Z,9.45
2023-03-29T13:02:37.724Z,19.08
2023-03-29T13:05:41.283Z,7.82
2023-03-29T13:08:45.889Z,15.60
2023-03-29T13:12:08.606Z,10.38
2023-03-29T13:15:18.423Z,11.20
2023-03-29T13:18:27.546Z,16.25
2023-03-29T13:21:54.642Z,11.07
2023-03-29T13:25:19.131Z,11.65
2023-03-29T13:28:51.858Z,13.68
2023-03-29T13:32:20.398Z,9.70
2023-03-29T13:35:42.700Z,11.88
2023-03-29T13:38:49.449Z,10.75
2023-03-29T13:41:54.853Z,14.18
2023-03-29T13:45:17.432Z,10.38
2023-03-29T13:48:49.585Z,14.25
2023-03-29T13:52:31.269Z,16.52
2023-03-29T13:55:44.388Z,10.50
2023-03-29T13:58:52.749Z,12.32
2023-03-29T14:02:01.278Z,12.70
2023-03-29T14:05:09.403Z,12.20
2023-03-29T14:08:29.936Z,17.58
2023-03-29T14:11:33.952Z,19.40
2023-03-29T14:14:42.623Z,12.98
2023-03-29T14:18:00.772Z,48.97
2023-03-29T14:21:04.858Z,27.33
2023-03-29T14:24:13.577Z,16.92
2023-03-29T14:27:18.285Z,18.35
2023-03-29T14:30:32.384Z,20.48
2023-03-29T14:33:37.157Z,17.92
2023-03-29T14:36:41.038Z,17.85
2023-03-29T14:39:45.300Z,14.68
2023-03-29T14:42:49.788Z,15.65
2023-03-29T14:45:53.252Z,18.55
2023-03-29T14:48:57.744Z,12.63
2023-03-29T14:52:01.196Z,8.30
2023-03-29T14:55:04.850Z,13.38
2023-03-29T14:58:37.102Z,11.38
2023-03-29T15:01:45.320Z,6.95
2023-03-29T15:04:56.590Z,20.13
2023-03-29T15:08:00.960Z,9.02
2023-03-29T15:11:12.620Z,7.63
2023-03-29T15:14:19.277Z,9.50
2023-03-29T15:17:50.298Z,9.07
2023-03-29T15:20:55.543Z,13.77
2023-03-29T15:24:01.235Z,13.48
2023-03-29T15:27:14.460Z,8.07
2023-03-29T15:30:19.886Z,9.45
2023-03-29T15:33:24.814Z,9.98
2023-03-29T15:36:28.288Z,14.63
2023-03-29T15:39:33.132Z,9.35
2023-03-29T15:42:37.276Z,7.68
2023-03-29T15:45:40.763Z,14.80
2023-03-29T15:48:44.310Z,11.10
2023-03-29T15:51:47.799Z,5.45
2023-03-29T15:54:51.063Z,10.45
2023-03-29T15:57:55.206Z,6.68
2023-03-29T16:01:12.147Z,7.13
2023-03-29T16:04:17.878Z,9.38
2023-03-29T16:07:21.650Z,13.73
2023-03-29T16:10:24.924Z,19.55
2023-03-29T16:13:28.269Z,15.95
2023-03-29T16:16:31.619Z,9.68
2023-03-29T16:19:35.622Z,11.52
2023-03-29T16:22:38.887Z,10.05
2023-03-29T16:25:42.280Z,11.98
2023-03-29T16:28:45.656Z,10.02
2023-03-29T16:31:50.106Z,10.70
2023-03-29T16:34:54.233Z,9.45
2023-03-29T16:37:57.659Z,7.00
2023-03-29T16:41:02.211Z,15.82
2023-03-29T16:44:05.655Z,12.25
2023-03-29T16:47:12.930Z,11.38
2023-03-29T16:50:19.372Z,9.18
2023-03-29T16:53:23.025Z,13.60
2023-03-29T16:56:28.161Z,11.43
2023-03-29T16:59:31.433Z,9.30
2023-03-29T17:02:35.167Z,12.18
2023-03-29T17:05:42.047Z,13.18
2023-03-29T17:08:45.390Z,12.57
2023-03-29T17:11:48.850Z,10.43
2023-03-29T17:14:53.310Z,13.63
2023-03-29T17:17:56.780Z,9.23
2023-03-29T17:21:00.201Z,11.00
2023-03-29T17:24:03.449Z,11.73
2023-03-29T17:27:06.709Z,10.65
2023-03-29T17:30:10.552Z,10.38
2023-03-29T17:33:14.308Z,11.80
2023-03-29T17:36:17.593Z,8.85
2023-03-29T17:39:20.913Z,8.98
2023-03-29T17:42:24.169Z,9.20
2023-03-29T17:45:27.774Z,12.43
2023-03-29T17:48:33.476Z,9.27
2023-03-29T17:51:36.944Z,8.63
2023-03-29T17:54:40.191Z,8.95
2023-03-29T17:57:44.538Z,9.70
2023-03-29T18:00:47.932Z,8.80
2023-03-29T18:03:51.387Z,7.28
2023-03-29T18:06:55.633Z,8.98
2023-03-29T18:09:59.235Z,11.18
2023-03-29T18:13:02.541Z,9.77
2023-03-29T18:16:07.526Z,9.90
2023-03-29T18:19:11.452Z,10.82
2023-03-29T18:22:14.689Z,8.95
2023-03-29T18:25:18.937Z,8.32
2023-03-29T18:28:23.570Z,8.23
2023-03-29T18:31:28.568Z,7.03
2023-03-29T18:34:32.033Z,7.60
2023-03-29T18:37:35.297Z,10.02
2023-03-29T18:40:39.902Z,7.18
2023-03-29T18:43:44.740Z,6.95
2023-03-29T18:46:48.726Z,10.23
2023-03-29T18:49:52.005Z,7.93
2023-03-29T18:52:55.302Z,7.18
2023-03-29T18:55:58.548Z,8.18
2023-03-29T18:59:05.724Z,8.18
2023-03-29T19:02:09.035Z,7.00
2023-03-29T19:05:12.605Z,10.65
2023-03-29T19:08:16.285Z,7.47
2023-03-29T19:11:19.560Z,8.65
2023-03-29T19:14:25.841Z,9.20
2023-03-29T19:17:29.205Z,9.05
2023-03-29T19:20:32.807Z,9.15
2023-03-29T19:23:36.916Z,7.20
2023-03-29T19:26:40.588Z,8.63
2023-03-29T19:29:43.932Z,10.13
2023-03-29T19:32:47.535Z,10.27
2023-03-29T19:35:52.530Z,9.75
2023-03-29T19:38:56.348Z,9.50
2023-03-29T19:41:59.666Z,6.93
2023-03-29T19:45:04.598Z,13.90
2023-03-29T19:48:19.457Z,12.10
2023-03-29T19:51:27.388Z,8.57
2023-03-29T19:54:31.407Z,6.32
2023-03-29T19:57:34.841Z,8.80
2023-03-29T20:00:39.500Z,8.45
2023-03-29T20:03:43.831Z,9.10
2023-03-29T20:06:47.591Z,6.82
2023-03-29T20:09:53.043Z,7.55
2023-03-29T20:12:57.705Z,13.00
2023-03-29T20:16:01.030Z,8.52
2023-03-29T20:19:06.681Z,8.35
2023-03-29T20:22:09.961Z,9.38
2023-03-29T20:25:13.400Z,10.57
2023-03-29T20:28:16.659Z,10.88
2023-03-29T20:31:20.007Z,9.93
2023-03-29T20:34:23.445Z,9.55
2023-03-29T20:37:26.799Z,9.15
2023-03-29T20:40:30.804Z,12.90
2023-03-29T20:43:41.824Z,16.40
2023-03-29T20:47:08.762Z,13.80
2023-03-29T20:50:12.236Z,14.32
2023-03-29T20:53:16.986Z,12.07
2023-03-29T20:56:21.454Z,12.00
2023-03-29T20:59:24.756Z,10.60
2023-03-29T21:02:28.122Z,12.70
2023-03-29T21:05:33.742Z,9.65
2023-03-29T21:08:39.301Z,9.93
2023-03-29T21:11:42.932Z,7.40
2023-03-29T21:14:48.042Z,7.30
2023-03-29T21:17:51.649Z,8.88
2023-03-29T21:20:54.928Z,9.60
2023-03-29T21:23:58.234Z,12.07
2023-03-29T21:27:01.917Z,9.20
2023-03-29T21:30:09.369Z,11.13
2023-03-29T21:36:16.047Z,10.50
2023-03-29T21:39:19.430Z,7.03
2023-03-29T21:42:22.677Z,7.75
2023-03-29T21:45:26.082Z,12.98
2023-03-29T21:48:29.691Z,7.63
2023-03-29T21:51:33.358Z,17.63
2023-03-29T21:54:37.049Z,13.32
2023-03-29T21:57:40.339Z,11.80
2023-03-29T22:00:43.724Z,11.55
2023-03-29T22:03:48.225Z,24.77
2023-03-29T22:06:51.532Z,13.27
2023-03-29T22:09:55.392Z,18.02
2023-03-29T22:12:58.685Z,16.17
2023-03-29T22:16:04.464Z,14.35
2023-03-29T22:19:09.305Z,17.00
2023-03-29T22:22:14.904Z,20.08
2023-03-29T22:25:19.877Z,14.68
2023-03-29T22:28:23.162Z,12.52
2023-03-29T22:31:27.980Z,17.70
2023-03-29T22:34:32.059Z,12.68
2023-03-29T22:37:40.291Z,16.42
2023-03-29T22:40:43.783Z,15.93
2023-03-29T22:43:47.520Z,15.70
2023-03-29T22:46:51.002Z,16.75
2023-03-29T22:49:54.317Z,17.45
2023-03-29T22:52:57.596Z,19.08
2023-03-29T22:56:00.931Z,22.33
2023-03-29T22:59:04.366Z,34.25
2023-03-29T23:02:08.334Z,32.08
2023-03-29T23:05:11.826Z,38.03
2023-03-29T23:08:15.124Z,22.10
2023-03-29T23:11:18.415Z,31.20
2023-03-29T23:14:21.701Z,31.85
2023-03-29T23:17:25.013Z,25.25
2023-03-29T23:20:30.844Z,32.67
2023-03-29T23:23:34.320Z,34.67
2023-03-29T23:26:38.218Z,40.15
2023-03-29T23:29:41.700Z,51.25
2023-03-29T23:32:45.133Z,39.92
2023-03-29T23:35:49.435Z,38.13
2023-03-29T23:38:53.046Z,38.95
2023-03-29T23:41:57.328Z,54.13
2023-03-29T23:45:00.918Z,28.20
2023-03-29T23:48:04.466Z,37.97
2023-03-29T23:51:08.809Z,35.33
2023-03-29T23:54:15.938Z,39.72
2023-03-29T23:57:19.442Z,40.53
